Time;durP1;ratioP1;P1;durP2;ratioP2;P2;SDS_P1;SDS_P2;PMS_P1;PMS_P2;Temp;Humidity;BMP_temperature;BMP_pressure;BME280_temperature;BME280_humidity;BME280_pressure;Samples;Min_cycle;Max_cycle;Signal;HPM_P1;HPM_P2
2023/01/04 00:01:55;;;;;;;4.97;4.47;;;8.10;99.90;;;;;;5000852;28;90698;-33
2023/01/04 00:04:21;;;;;;;7.35;4.57;;;8.20;99.90;;;;;;5001179;28;89279;-32
2023/01/04 00:06:47;;;;;;;9.70;4.55;;;8.20;99.90;;;;;;5001861;28;90326;-32
2023/01/04 00:09:12;;;;;;;9.27;4.85;;;8.20;99.90;;;;;;5001648;28;89336;-33
2023/01/04 00:11:38;;;;;;;7.63;4.82;;;8.20;99.90;;;;;;5001299;28;89343;-32
2023/01/04 00:14:04;;;;;;;8.77;5.20;;;8.20;99.90;;;;;;5001566;28;88946;-32
2023/01/04 00:16:29;;;;;;;12.18;4.70;;;8.30;99.90;;;;;;5000686;28;89957;-31
2023/01/04 00:18:56;;;;;;;6.15;4.60;;;8.30;99.90;;;;;;5001532;28;88843;-31
2023/01/04 00:21:27;;;;;;;12.00;5.13;;;8.30;99.90;;;;;;4990452;28;91786;-33
2023/01/04 00:23:55;;;;;;;10.38;3.88;;;8.30;99.90;;;;;;4998759;28;89403;-32
2023/01/04 00:26:24;;;;;;;10.38;4.22;;;8.30;99.90;;;;;;4990571;28;89225;-34
2023/01/04 00:29:00;;;;;;;7.28;4.15;;;8.30;99.90;;;;;;4996905;28;90267;-33
2023/01/04 00:31:27;;;;;;;4.88;3.58;;;8.20;99.90;;;;;;5000746;28;89641;-35
2023/01/04 00:33:54;;;;;;;6.70;3.83;;;8.20;99.90;;;;;;5000899;28;89434;-33
2023/01/04 00:36:19;;;;;;;8.55;4.45;;;8.20;99.90;;;;;;5000582;28;88666;-31
2023/01/04 00:38:45;;;;;;;4.57;4.10;;;8.20;99.90;;;;;;5000579;28;88928;-33
2023/01/04 00:41:11;;;;;;;6.30;5.07;;;8.20;99.90;;;;;;5000731;28;89863;-31
2023/01/04 00:43:37;;;;;;;8.13;4.43;;;8.10;99.90;;;;;;5001142;28;89566;-35
2023/01/04 00:46:05;;;;;;;9.20;4.47;;;8.10;99.90;;;;;;5001279;28;89921;-32
2023/01/04 00:48:31;;;;;;;7.35;3.75;;;8.20;99.90;;;;;;5000573;28;88641;-33
2023/01/04 00:50:58;;;;;;;6.68;4.40;;;8.10;99.90;;;;;;4999274;28;90948;-33
2023/01/04 00:53:24;;;;;;;4.90;4.13;;;8.10;99.90;;;;;;5000667;28;89109;-32
2023/01/04 00:55:50;;;;;;;8.13;4.25;;;8.10;99.90;;;;;;5001167;28;89935;-31
2023/01/04 00:58:15;;;;;;;5.25;3.90;;;8.10;99.90;;;;;;5000385;28;90153;-33
2023/01/04 01:00:41;;;;;;;8.10;3.95;;;8.10;99.90;;;;;;4999318;28;90048;-32
2023/01/04 01:03:07;;;;;;;7.68;3.95;;;8.00;99.90;;;;;;5000293;28;89518;-32
2023/01/04 01:05:34;;;;;;;4.03;3.63;;;8.00;99.90;;;;;;5000567;28;88137;-34
2023/01/04 01:08:23;;;;;;;8.05;3.90;;;7.90;99.90;;;;;;5000420;28;89892;-32
2023/01/04 01:10:45;;;;;;;4.30;3.63;;;8.00;99.90;;;;;;4975914;28;90410;-33
2023/01/04 01:13:11;;;;;;;6.32;4.30;;;8.00;99.90;;;;;;5000322;28;90287;-32
2023/01/04 01:15:36;;;;;;;8.35;4.60;;;8.00;99.90;;;;;;5000085;28;89814;-32
2023/01/04 01:18:02;;;;;;;9.38;4.38;;;8.00;99.90;;;;;;5000307;28;89198;-31
2023/01/04 01:20:27;;;;;;;11.38;5.05;;;8.00;99.90;;;;;;5000297;28;90122;-31
2023/01/04 01:22:53;;;;;;;7.35;4.50;;;7.90;99.90;;;;;;5000059;28;89175;-31
2023/01/04 01:25:19;;;;;;;4.88;4.38;;;8.00;99.90;;;;;;5000506;28;89446;-32
2023/01/04 01:27:44;;;;;;;10.52;4.57;;;8.00;99.90;;;;;;4999733;28;90382;-34
2023/01/04 01:30:10;;;;;;;6.40;3.85;;;8.00;99.90;;;;;;5000179;28;89949;-33
2023/01/04 01:32:36;;;;;;;10.05;3.78;;;8.00;99.90;;;;;;5000051;28;91036;-32
2023/01/04 01:35:01;;;;;;;6.03;4.43;;;8.10;99.90;;;;;;4999828;28;89122;-34
2023/01/04 01:37:27;;;;;;;4.00;3.63;;;8.00;99.90;;;;;;4999501;28;88820;-34
2023/01/04 01:39:53;;;;;;;6.53;4.45;;;8.00;99.90;;;;;;4998866;28;90514;-33
2023/01/04 01:42:19;;;;;;;6.15;3.72;;;8.10;99.90;;;;;;5000287;28;89109;-32
2023/01/04 01:44:45;;;;;;;10.20;4.78;;;8.10;99.90;;;;;;5000107;28;89078;-32
2023/01/04 01:47:17;;;;;;;8.15;4.65;;;8.10;99.90;;;;;;4999381;28;90370;-32
2023/01/04 01:49:46;;;;;;;5.55;4.82;;;8.00;99.90;;;;;;4999439;28;90506;-33
2023/01/04 01:52:20;;;;;;;5.97;3.60;;;7.90;99.90;;;;;;4999598;28;88361;-32
2023/01/04 01:54:54;;;;;;;5.75;3.65;;;7.90;99.90;;;;;;5000343;28;90018;-32
2023/01/04 01:57:24;;;;;;;6.57;4.05;;;8.00;99.90;;;;;;4981318;28;89998;-32
2023/01/04 01:59:54;;;;;;;8.00;3.83;;;8.00;99.90;;;;;;4998300;28;89579;-34
2023/01/04 02:02:20;;;;;;;4.75;3.40;;;8.10;99.90;;;;;;4999264;28;90038;-32
2023/01/04 02:04:49;;;;;;;6.78;4.47;;;8.20;99.90;;;;;;4999087;28;90516;-33
2023/01/04 02:07:18;;;;;;;4.57;4.18;;;8.10;99.90;;;;;;4999669;28;90756;-32
2023/01/04 02:09:45;;;;;;;6.18;4.13;;;8.10;99.90;;;;;;4999243;28;90131;-31
2023/01/04 02:12:12;;;;;;;7.32;4.15;;;8.10;99.90;;;;;;4998332;28;89768;-33
2023/01/04 02:14:38;;;;;;;4.97;3.88;;;8.00;99.90;;;;;;4999379;28;89238;-34
2023/01/04 02:17:25;;;;;;;6.00;3.65;;;8.00;99.90;;;;;;5000079;28;91040;-32
2023/01/04 02:19:59;;;;;;;4.47;3.88;;;8.10;99.90;;;;;;4999550;28;89658;-34
2023/01/04 02:22:59;;;;;;;10.00;4.63;;;8.10;99.90;;;;;;4999637;28;89827;-32
2023/01/04 02:25:58;;;;;;;4.15;3.78;;;8.10;99.90;;;;;;4985533;28;88997;-33
2023/01/04 02:29:08;;;;;;;10.45;4.18;;;8.10;99.90;;;;;;4999578;28;89849;-32
2023/01/04 02:32:12;;;;;;;4.40;4.00;;;8.10;99.90;;;;;;4974941;28;90562;-34
2023/01/04 02:35:21;;;;;;;3.90;3.38;;;8.10;99.90;;;;;;4955309;28;90689;-33
2023/01/04 02:38:14;;;;;;;10.52;3.33;;;8.10;99.90;;;;;;4916508;28;88234;-33
2023/01/04 02:40:47;;;;;;;5.00;3.60;;;8.10;99.90;;;;;;4905297;28;90093;-34
2023/01/04 02:46:16;;;;;;;6.47;4.38;;;8.10;99.90;;;;;;4998517;28;90130;-33
2023/01/04 02:51:25;;;;;;;4.50;3.90;;;8.10;99.90;;;;;;4985836;28;90421;-33
2023/01/04 02:53:51;;;;;;;5.55;3.28;;;8.10;99.90;;;;;;4999045;28;90069;-34
2023/01/04 02:56:37;;;;;;;3.05;2.85;;;8.20;99.90;;;;;;4998296;28;89564;-31
2023/01/04 02:59:11;;;;;;;2.78;2.58;;;8.20;99.90;;;;;;4998618;28;89517;-34
2023/01/04 03:08:23;;;;;;;9.98;3.15;;;8.30;99.90;;;;;;4998327;28;90044;-31
2023/01/04 03:12:30;;;;;;;4.28;3.15;;;8.40;99.90;;;;;;4999162;28;88797;-32
2023/01/04 03:13:54;;;;;;;3.58;3.22;;;8.50;99.90;;;;;;4992898;28;91017;-31
2023/01/04 03:16:22;;;;;;;;;;;8.40;99.90;;;;;;4990744;28;89823;-31
2023/01/04 03:18:52;;;;;;;3.53;2.72;;;8.50;99.90;;;;;;4999727;28;89032;-32
2023/01/04 03:21:19;;;;;;;3.58;2.40;;;8.60;99.90;;;;;;4999313;28;89948;-32
2023/01/04 03:35:44;;;;;;;2.57;2.37;;;8.60;99.90;;;;;;5001900;28;90496;-33
2023/01/04 03:50:26;;;;;;;3.13;2.63;;;8.80;99.90;;;;;;5001727;28;91828;-32
2023/01/04 03:52:54;;;;;;;3.70;3.35;;;8.80;99.90;;;;;;4988858;28;89493;-32
2023/01/04 03:55:20;;;;;;;7.07;4.25;;;8.80;99.90;;;;;;4981298;28;90199;-34
2023/01/04 03:57:46;;;;;;;2.97;2.78;;;8.90;99.90;;;;;;4981051;28;90205;-35
2023/01/04 04:00:15;;;;;;;2.88;2.63;;;9.00;99.90;;;;;;4981766;28;89678;-32
2023/01/04 04:02:41;;;;;;;3.28;3.08;;;9.00;99.90;;;;;;4981254;28;89322;-31
2023/01/04 04:10:36;;;;;;;3.88;2.67;;;9.10;99.90;;;;;;4981633;28;91675;-32
2023/01/04 04:13:01;;;;;;;3.17;2.88;;;9.10;99.90;;;;;;4981650;28;89449;-33
2023/01/04 04:15:27;;;;;;;3.95;3.35;;;9.20;99.90;;;;;;4981809;28;88699;-32
2023/01/04 04:17:52;;;;;;;3.53;3.28;;;9.30;99.90;;;;;;4980831;28;89902;-32
2023/01/04 04:20:18;;;;;;;3.88;3.00;;;9.30;99.90;;;;;;4980984;28;90347;-35
2023/01/04 04:22:44;;;;;;;3.08;2.88;;;9.30;99.90;;;;;;4980988;28;90053;-34
2023/01/04 04:25:09;;;;;;;4.70;3.30;;;9.30;99.90;;;;;;4981092;28;89254;-32
2023/01/04 04:27:35;;;;;;;2.97;2.38;;;9.30;99.90;;;;;;4980943;28;91628;-37
2023/01/04 04:30:01;;;;;;;3.35;3.05;;;9.30;99.90;;;;;;4981206;28;89618;-33
2023/01/04 04:32:27;;;;;;;2.78;2.58;;;9.40;99.90;;;;;;4981549;28;89372;-32
2023/01/04 04:34:53;;;;;;;2.38;2.28;;;9.40;99.90;;;;;;4980005;28;89436;-32
2023/01/04 04:37:18;;;;;;;3.45;2.45;;;9.40;99.90;;;;;;4980787;28;90227;-32
2023/01/04 04:39:44;;;;;;;8.98;3.05;;;9.50;99.90;;;;;;4980848;28;89697;-32
2023/01/04 04:42:09;;;;;;;3.10;2.47;;;9.50;99.90;;;;;;4980889;28;90033;-34
2023/01/04 04:44:35;;;;;;;3.38;2.47;;;9.50;99.90;;;;;;4980963;28;89009;-32
2023/01/04 04:47:01;;;;;;;3.15;2.95;;;9.60;99.90;;;;;;4980791;28;90374;-33
2023/01/04 04:49:27;;;;;;;3.45;2.55;;;9.60;99.90;;;;;;4980949;28;90280;-34
2023/01/04 04:51:52;;;;;;;2.38;2.17;;;9.70;99.90;;;;;;4980271;28;89142;-34
2023/01/04 04:54:20;;;;;;;2.85;2.65;;;9.70;99.90;;;;;;4980855;28;87635;-33
2023/01/04 04:56:47;;;;;;;2.50;2.30;;;9.70;99.90;;;;;;4980942;28;90202;-34
2023/01/04 04:59:14;;;;;;;3.07;2.80;;;9.80;99.90;;;;;;4980816;28;89629;-34
2023/01/04 05:01:39;;;;;;;2.80;2.60;;;9.80;99.90;;;;;;4980069;28;88239;-34
2023/01/04 05:04:05;;;;;;;6.47;2.65;;;9.80;99.90;;;;;;4981308;28;89494;-32
2023/01/04 05:06:31;;;;;;;2.70;2.47;;;9.80;99.90;;;;;;4980147;28;89216;-32
2023/01/04 05:08:57;;;;;;;3.45;3.03;;;9.80;99.90;;;;;;4979779;28;89710;-34
2023/01/04 05:14:07;;;;;;;2.88;2.67;;;9.90;99.90;;;;;;4980681;28;89827;-32
2023/01/04 05:16:33;;;;;;;3.67;3.35;;;10.00;99.90;;;;;;4980562;28;90179;-32
2023/01/04 05:18:59;;;;;;;2.50;2.30;;;10.00;99.90;;;;;;4979654;28;89728;-31
2023/01/04 05:21:24;;;;;;;3.05;2.85;;;10.00;99.90;;;;;;4980459;28;89534;-32
2023/01/04 05:23:50;;;;;;;4.38;3.97;;;10.00;99.90;;;;;;4979820;28;89562;-31
2023/01/04 05:26:15;;;;;;;3.60;2.95;;;9.90;99.90;;;;;;4980077;28;90356;-35
2023/01/04 05:28:41;;;;;;;5.13;3.22;;;10.00;99.90;;;;;;4980031;28;88712;-33
2023/01/04 05:31:07;;;;;;;3.65;3.35;;;10.00;99.90;;;;;;4980163;28;90206;-34
2023/01/04 05:33:32;;;;;;;3.28;2.97;;;10.00;99.90;;;;;;4979765;28;88924;-32
2023/01/04 05:36:01;;;;;;;4.10;3.80;;;10.10;99.90;;;;;;4978974;28;90036;-31
2023/01/04 05:38:27;;;;;;;4.50;3.78;;;10.10;99.90;;;;;;4979453;28;90344;-32
2023/01/04 05:40:53;;;;;;;3.83;3.42;;;10.20;99.90;;;;;;4980380;28;89335;-34
2023/01/04 05:43:21;;;;;;;4.53;4.10;;;10.10;99.90;;;;;;4979903;28;88636;-35
2023/01/04 05:45:49;;;;;;;6.03;4.70;;;10.20;99.90;;;;;;4979284;28;90179;-32
2023/01/04 05:48:15;;;;;;;5.22;4.72;;;10.20;99.90;;;;;;4979573;28;89317;-33
2023/01/04 05:50:40;;;;;;;5.40;4.93;;;10.20;99.90;;;;;;4980460;28;89114;-32
2023/01/04 05:53:06;;;;;;;5.60;5.10;;;10.20;99.90;;;;;;4980244;28;88169;-32
2023/01/04 05:55:32;;;;;;;6.55;5.18;;;10.20;99.90;;;;;;4965748;28;90225;-33
2023/01/04 05:57:58;;;;;;;5.72;4.88;;;10.20;99.90;;;;;;4978026;28;90905;-34
2023/01/04 06:00:24;;;;;;;5.90;5.25;;;10.30;99.90;;;;;;4979458;28;90702;-32
2023/01/04 06:02:51;;;;;;;5.72;5.20;;;10.40;99.90;;;;;;4979935;28;88339;-33
2023/01/04 06:05:17;;;;;;;5.93;5.28;;;10.40;99.90;;;;;;4979259;28;90089;-33
2023/01/04 06:07:43;;;;;;;5.72;5.13;;;10.30;99.90;;;;;;4979543;28;89848;-34
2023/01/04 06:10:11;;;;;;;6.07;5.53;;;10.40;99.90;;;;;;4979796;28;89992;-33
2023/01/04 06:12:37;;;;;;;9.45;5.75;;;10.40;99.90;;;;;;4979693;28;89128;-32
2023/01/04 06:15:05;;;;;;;5.68;5.07;;;10.40;99.90;;;;;;4979887;28;88614;-31
2023/01/04 06:17:30;;;;;;;5.55;5.00;;;10.40;99.90;;;;;;4979439;28;90924;-31
2023/01/04 06:19:56;;;;;;;7.05;6.35;;;10.50;99.90;;;;;;4979024;28;90106;-33
2023/01/04 06:22:22;;;;;;;5.47;4.93;;;10.40;99.90;;;;;;4979390;28;90107;-35
2023/01/04 06:24:47;;;;;;;6.00;5.50;;;10.50;99.90;;;;;;4978673;28;90415;-34
2023/01/04 06:27:13;;;;;;;5.75;5.25;;;10.50;99.90;;;;;;4978723;28;90388;-33
2023/01/04 06:29:39;;;;;;;7.22;4.78;;;10.50;99.90;;;;;;4979058;28;89850;-32
2023/01/04 06:32:04;;;;;;;8.63;5.72;;;10.50;99.90;;;;;;4978786;28;89172;-32
2023/01/04 06:34:30;;;;;;;5.97;5.20;;;10.40;99.90;;;;;;4959241;28;90184;-33
2023/01/04 06:36:56;;;;;;;5.65;4.95;;;10.50;99.90;;;;;;4978237;28;90072;-33
2023/01/04 06:39:21;;;;;;;4.65;4.28;;;10.50;99.90;;;;;;4979657;28;89678;-33
2023/01/04 06:41:47;;;;;;;7.50;4.97;;;10.50;99.90;;;;;;4979222;28;89380;-32
2023/01/04 06:44:12;;;;;;;4.88;4.47;;;10.60;99.90;;;;;;4978487;28;90179;-31
2023/01/04 06:46:39;;;;;;;6.00;5.18;;;10.60;99.90;;;;;;4978554;28;90754;-34
2023/01/04 06:49:05;;;;;;;6.50;4.80;;;10.60;99.90;;;;;;4978340;28;90897;-33
2023/01/04 06:51:31;;;;;;;4.45;4.05;;;10.60;99.90;;;;;;4979594;28;89385;-33
2023/01/04 06:53:56;;;;;;;5.53;3.47;;;10.70;99.90;;;;;;4978799;28;91769;-33
2023/01/04 06:56:22;;;;;;;4.70;3.95;;;10.70;99.90;;;;;;4978171;28;90523;-31
2023/01/04 06:58:48;;;;;;;4.00;3.67;;;10.70;99.90;;;;;;4978093;28;89216;-33
2023/01/04 07:01:14;;;;;;;5.43;4.57;;;10.60;99.90;;;;;;4978515;28;88460;-33
2023/01/04 07:03:39;;;;;;;3.67;3.38;;;10.60;99.90;;;;;;4979039;28;90295;-31
2023/01/04 07:06:06;;;;;;;3.25;2.95;;;10.60;99.90;;;;;;4978286;28;89356;-32
2023/01/04 07:08:33;;;;;;;3.13;2.70;;;10.70;99.90;;;;;;4978194;28;89008;-32
2023/01/04 07:10:59;;;;;;;3.15;2.85;;;10.70;99.90;;;;;;4978606;28;89270;-33
2023/01/04 07:13:25;;;;;;;2.53;2.33;;;10.70;99.90;;;;;;4979140;28;89845;-33
2023/01/04 07:15:50;;;;;;;2.95;2.53;;;10.70;99.90;;;;;;4977717;28;90153;-34
2023/01/04 07:18:16;;;;;;;2.53;2.42;;;10.70;99.90;;;;;;4979024;28;89923;-32
2023/01/04 07:20:42;;;;;;;2.65;2.45;;;10.70;99.90;;;;;;4978453;28;89239;-34
2023/01/04 07:23:08;;;;;;;3.33;2.78;;;10.70;99.90;;;;;;4979261;28;90367;-32
2023/01/04 07:25:33;;;;;;;3.03;2.38;;;10.70;99.90;;;;;;4978620;28;89196;-35
2023/01/04 07:27:59;;;;;;;4.70;2.65;;;10.80;99.90;;;;;;4978379;28;89510;-32
2023/01/04 07:30:25;;;;;;;3.42;3.13;;;10.80;99.90;;;;;;4978977;28;89642;-32
2023/01/04 07:32:52;;;;;;;2.90;2.67;;;10.80;99.90;;;;;;4977739;28;91372;-32
2023/01/04 07:35:18;;;;;;;3.80;2.88;;;10.80;99.90;;;;;;4978252;28;90247;-35
2023/01/04 07:37:43;;;;;;;3.20;2.90;;;10.80;99.90;;;;;;4978020;28;90306;-33
2023/01/04 07:40:10;;;;;;;2.70;2.50;;;10.80;99.90;;;;;;4978701;28;89518;-34
2023/01/04 07:42:36;;;;;;;4.03;2.70;;;10.70;99.90;;;;;;4977309;28;89770;-33
2023/01/04 07:45:03;;;;;;;2.53;2.33;;;10.80;99.90;;;;;;4982009;28;89992;-35
2023/01/04 07:47:29;;;;;;;3.15;2.83;;;10.80;99.90;;;;;;4980080;28;90270;-33
2023/01/04 07:49:54;;;;;;;2.72;2.53;;;10.90;99.90;;;;;;4981185;28;89214;-34
2023/01/04 07:52:20;;;;;;;2.85;2.53;;;10.90;99.90;;;;;;4980338;28;90315;-32
2023/01/04 07:54:45;;;;;;;2.90;2.63;;;10.80;99.90;;;;;;4977677;28;90073;-34
2023/01/04 07:57:11;;;;;;;2.58;2.35;;;10.90;99.90;;;;;;4984393;28;89240;-33
2023/01/04 07:59:37;;;;;;;2.42;2.33;;;10.90;99.90;;;;;;4981108;28;89252;-32
2023/01/04 08:02:02;;;;;;;3.22;2.35;;;10.90;99.90;;;;;;4981561;28;92312;-33
2023/01/04 08:04:28;;;;;;;2.40;2.20;;;10.90;99.90;;;;;;4977465;28;89369;-34
2023/01/04 08:06:54;;;;;;;2.97;2.42;;;10.90;99.90;;;;;;4978224;28;89897;-34
2023/01/04 08:09:19;;;;;;;3.45;2.58;;;10.90;99.90;;;;;;4978038;28;88628;-34
2023/01/04 08:11:46;;;;;;;2.63;2.40;;;10.90;99.90;;;;;;4979099;28;89706;-33
2023/01/04 08:14:12;;;;;;;3.80;2.22;;;10.90;99.90;;;;;;4994144;28;89737;-33
2023/01/04 08:16:40;;;;;;;2.80;2.60;;;10.80;99.90;;;;;;4997828;28;89397;-33
2023/01/04 08:19:19;;;;;;;2.20;2.10;;;10.90;99.90;;;;;;4995820;28;89130;-34
2023/01/04 08:21:46;;;;;;;4.28;2.63;;;10.90;99.90;;;;;;4980967;28;89132;-32
2023/01/04 08:24:14;;;;;;;2.70;2.50;;;10.90;99.90;;;;;;4992710;28;90567;-33
2023/01/04 08:26:40;;;;;;;3.58;3.20;;;10.90;99.90;;;;;;4998462;28;92053;-32
2023/01/04 08:29:06;;;;;;;3.35;2.95;;;11.00;99.90;;;;;;4996954;28;87881;-34
2023/01/04 08:31:33;;;;;;;3.20;3.00;;;11.00;99.90;;;;;;4978525;28;89992;-33
2023/01/04 08:34:01;;;;;;;3.00;2.70;;;11.00;99.90;;;;;;4997826;28;90448;-33
2023/01/04 08:36:29;;;;;;;2.67;2.47;;;11.00;99.90;;;;;;4994587;28;89552;-33
2023/01/04 08:39:01;;;;;;;3.33;2.97;;;10.90;99.90;;;;;;4997893;28;88784;-32
2023/01/04 08:41:28;;;;;;;3.45;2.92;;;11.00;99.90;;;;;;4995231;28;91681;-33
2023/01/04 08:43:54;;;;;;;3.40;3.10;;;11.00;99.90;;;;;;4997554;28;89917;-34
2023/01/04 08:46:19;;;;;;;3.70;3.38;;;11.00;99.90;;;;;;4990973;28;89453;-32
2023/01/04 08:48:45;;;;;;;3.33;3.03;;;11.10;99.90;;;;;;4988495;28;90442;-34
2023/01/04 08:51:13;;;;;;;3.10;2.75;;;11.10;99.90;;;;;;4981601;28;90342;-33
2023/01/04 08:53:39;;;;;;;6.57;3.25;;;11.10;99.90;;;;;;4995508;28;89911;-33
2023/01/04 08:56:05;;;;;;;3.55;3.13;;;11.10;99.90;;;;;;4981109;28;89588;-34
2023/01/04 08:58:32;;;;;;;4.28;3.30;;;11.20;99.90;;;;;;4984760;28;89138;-35
2023/01/04 09:01:01;;;;;;;3.38;3.00;;;11.20;99.90;;;;;;4986647;28;90020;-33
2023/01/04 09:03:27;;;;;;;3.97;3.60;;;11.20;99.90;;;;;;4980951;28;90559;-32
2023/01/04 09:05:53;;;;;;;3.92;3.53;;;11.30;99.90;;;;;;4980472;28;90076;-34
2023/01/04 09:08:18;;;;;;;3.70;3.35;;;11.20;99.90;;;;;;4981186;28;89306;-32
2023/01/04 09:10:44;;;;;;;3.75;3.28;;;11.20;99.90;;;;;;4979346;28;89635;-33
2023/01/04 09:13:10;;;;;;;4.65;3.90;;;11.20;99.90;;;;;;4980032;28;90657;-35
2023/01/04 09:15:35;;;;;;;5.78;3.80;;;11.20;99.90;;;;;;4976036;28;90497;-37
2023/01/04 09:18:02;;;;;;;2.83;2.53;;;11.20;99.90;;;;;;4996099;28;89306;-35
2023/01/04 09:20:28;;;;;;;3.42;3.10;;;11.30;99.90;;;;;;4997388;28;89986;-32
2023/01/04 09:22:56;;;;;;;3.20;2.88;;;11.20;99.90;;;;;;4993643;28;89230;-34
2023/01/04 09:25:22;;;;;;;3.55;3.25;;;11.30;99.90;;;;;;4995463;28;90257;-32
2023/01/04 09:27:47;;;;;;;3.17;2.88;;;11.30;99.90;;;;;;4986057;28;89836;-32
2023/01/04 09:30:13;;;;;;;2.90;2.70;;;11.40;99.90;;;;;;4997700;28;90321;-32
2023/01/04 09:32:39;;;;;;;2.72;2.53;;;11.30;99.90;;;;;;4996780;28;90379;-35
2023/01/04 09:35:05;;;;;;;2.47;2.28;;;11.30;99.90;;;;;;4997247;28;89457;-33
2023/01/04 09:37:30;;;;;;;4.78;2.45;;;11.40;99.90;;;;;;5030218;22;89993;-32
2023/01/04 09:39:57;;;;;;;3.30;2.67;;;11.40;99.90;;;;;;4979801;28;89412;-35
2023/01/04 09:42:33;;;;;;;2.88;2.58;;;11.40;99.90;;;;;;4977509;28;89555;-35
2023/01/04 09:45:18;;;;;;;2.40;2.15;;;11.40;99.90;;;;;;4976380;28;89101;-34
2023/01/04 09:48:03;;;;;;;1.98;1.88;;;11.40;99.90;;;;;;4977397;28;88569;-34
2023/01/04 09:50:35;;;;;;;2.60;1.92;;;11.40;99.90;;;;;;4977557;28;90247;-34
2023/01/04 09:53:09;;;;;;;2.72;1.55;;;11.30;99.90;;;;;;4977742;28;89763;-32
2023/01/04 09:55:44;;;;;;;2.00;1.85;;;11.40;99.90;;;;;;4977300;28;89432;-33
2023/01/04 09:58:30;;;;;;;3.03;1.55;;;11.40;99.90;;;;;;4978186;28;88674;-34
2023/01/04 10:01:13;;;;;;;1.80;1.50;;;11.40;99.90;;;;;;4955568;28;89708;-34
2023/01/04 10:03:46;;;;;;;1.80;1.70;;;11.40;99.90;;;;;;4970586;28;90333;-35
2023/01/04 10:06:14;;;;;;;1.40;1.30;;;11.50;99.90;;;;;;4976708;28;90392;-33
2023/01/04 10:08:43;;;;;;;1.38;1.27;;;11.50;99.90;;;;;;4977439;28;89846;-35
2023/01/04 10:11:44;;;;;;;2.03;1.67;;;11.50;99.90;;;;;;4977301;28;89265;-33
2023/01/04 10:14:34;;;;;;;1.33;1.23;;;11.50;99.90;;;;;;4976214;28;89325;-32
2023/01/04 10:17:29;;;;;;;0.95;0.95;;;11.40;99.90;;;;;;4976708;28;90162;-32
2023/01/04 10:20:07;;;;;;;0.85;0.75;;;11.50;99.90;;;;;;4965544;28;89008;-32
2023/01/04 10:22:48;;;;;;;0.65;0.65;;;11.50;99.90;;;;;;4976156;28;90119;-34
2023/01/04 10:25:13;;;;;;;0.93;0.93;;;11.60;99.90;;;;;;4976576;28;90194;-33
2023/01/04 10:28:10;;;;;;;0.95;0.90;;;11.50;99.90;;;;;;4977076;28;89547;-32
2023/01/04 10:31:03;;;;;;;1.10;1.00;;;11.60;99.90;;;;;;4976725;28;88870;-33
2023/01/04 10:33:31;;;;;;;0.82;0.82;;;11.60;99.90;;;;;;4974132;28;89819;-35
2023/01/04 10:35:57;;;;;;;;;;;11.60;99.90;;;;;;4976032;28;90216;-35
2023/01/04 10:38:30;;;;;;;0.90;0.90;;;11.60;99.90;;;;;;4978199;28;89211;-33
2023/01/04 10:41:00;;;;;;;1.33;1.23;;;11.60;99.90;;;;;;4976653;28;89389;-33
2023/01/04 10:43:37;;;;;;;0.90;0.90;;;11.70;99.90;;;;;;4976754;28;90180;-34
2023/01/04 10:46:03;;;;;;;1.47;1.37;;;11.70;99.90;;;;;;4975315;28;89588;-32
2023/01/04 10:48:50;;;;;;;8.02;1.85;;;11.70;99.90;;;;;;4976494;28;91023;-34
2023/01/04 10:51:23;;;;;;;2.05;1.70;;;11.80;99.90;;;;;;4975777;28;89269;-34
2023/01/04 10:54:00;;;;;;;1.40;1.30;;;11.80;99.90;;;;;;4976752;28;90054;-35
2023/01/04 10:56:56;;;;;;;3.40;1.73;;;11.80;99.90;;;;;;4976194;28;90066;-33
2023/01/04 10:59:35;;;;;;;5.85;2.75;;;11.80;99.90;;;;;;4969136;28;91675;-33
2023/01/04 11:02:07;;;;;;;1.98;1.80;;;11.80;99.90;;;;;;4975727;28;88265;-32
2023/01/04 11:04:58;;;;;;;4.43;2.30;;;11.80;99.90;;;;;;4976205;28;90118;-32
2023/01/04 11:07:32;;;;;;;6.63;2.40;;;11.90;99.90;;;;;;4975818;28;89770;-33
2023/01/04 11:10:12;;;;;;;4.55;2.88;;;11.90;99.90;;;;;;4965547;28;89203;-32
2023/01/04 11:12:38;;;;;;;7.10;2.30;;;11.80;99.90;;;;;;4975788;28;89048;-34
2023/01/04 11:15:04;;;;;;;11.40;3.10;;;11.80;99.90;;;;;;4976325;28;90686;-33
2023/01/04 11:17:31;;;;;;;4.88;2.95;;;11.90;99.90;;;;;;4976354;28;89644;-32
2023/01/04 11:19:57;;;;;;;4.68;3.17;;;12.00;99.90;;;;;;4975903;28;89654;-33
2023/01/04 11:22:46;;;;;;;4.75;2.58;;;11.90;99.90;;;;;;4975792;28;90054;-33
2023/01/04 11:25:18;;;;;;;4.43;3.55;;;11.90;99.90;;;;;;4957638;28;89997;-33
2023/01/04 11:27:48;;;;;;;5.22;3.33;;;11.90;99.90;;;;;;4957178;28;89893;-34
2023/01/04 11:30:21;;;;;;;5.25;3.08;;;11.90;99.90;;;;;;4976374;28;90000;-33
2023/01/04 11:33:09;;;;;;;6.00;3.92;;;12.00;99.90;;;;;;4975323;28;89898;-33
2023/01/04 11:35:41;;;;;;;4.00;3.38;;;11.90;99.90;;;;;;4976225;28;90137;-34
2023/01/04 11:38:15;;;;;;;7.32;3.72;;;11.90;99.90;;;;;;4975149;28;89803;-33
2023/01/04 11:40:52;;;;;;;5.70;4.05;;;11.90;99.90;;;;;;4975624;28;89432;-35
2023/01/04 11:43:19;;;;;;;6.93;3.27;;;11.90;99.90;;;;;;4976376;28;89898;-35
2023/01/04 11:45:54;;;;;;;6.57;3.65;;;11.90;99.90;;;;;;4978512;28;90226;-35
2023/01/04 11:48:34;;;;;;;8.52;4.25;;;12.00;99.90;;;;;;4979113;28;89944;-32
2023/01/04 11:51:01;;;;;;;4.97;3.95;;;12.00;99.90;;;;;;4979520;28;91359;-33
2023/01/04 11:53:35;;;;;;;5.10;3.38;;;12.00;99.90;;;;;;4979660;28;89372;-33
2023/01/04 11:56:08;;;;;;;11.23;3.75;;;12.10;99.90;;;;;;4978632;28;90314;-34
2023/01/04 11:58:33;;;;;;;9.30;3.33;;;12.10;99.90;;;;;;4978979;28;90010;-33
2023/01/04 12:00:59;;;;;;;9.38;4.15;;;12.10;99.90;;;;;;4979029;28;89793;-36
2023/01/04 12:03:37;;;;;;;9.25;4.20;;;12.10;99.90;;;;;;4978762;28;87656;-33
2023/01/04 12:06:12;;;;;;;11.90;4.25;;;12.20;99.90;;;;;;4978919;28;90246;-34
2023/01/04 12:08:38;;;;;;;8.60;3.80;;;12.20;99.90;;;;;;4980350;28;89109;-35
2023/01/04 12:11:05;;;;;;;10.23;4.50;;;12.30;99.90;;;;;;4978992;28;89557;-33
2023/01/04 12:13:32;;;;;;;8.88;4.45;;;12.30;99.90;;;;;;4978761;28;90173;-33
2023/01/04 12:16:13;;;;;;;8.48;4.38;;;12.30;99.90;;;;;;4979096;28;89455;-34
2023/01/04 12:18:42;;;;;;;6.57;3.55;;;12.40;99.90;;;;;;4978861;28;90006;-33
2023/01/04 12:21:33;;;;;;;7.45;4.13;;;12.30;99.90;;;;;;4978964;28;89936;-35
2023/01/04 12:24:00;;;;;;;12.18;3.63;;;12.40;99.90;;;;;;4979054;28;89076;-33
2023/01/04 12:26:25;;;;;;;14.90;4.38;;;12.40;99.90;;;;;;4978520;28;89907;-35
2023/01/04 12:29:24;;;;;;;7.88;4.28;;;12.40;99.90;;;;;;4979200;28;89852;-32
2023/01/04 12:31:50;;;;;;;;;;;12.50;99.90;;;;;;4945344;28;89507;-35
2023/01/04 12:34:22;;;;;;;9.25;3.80;;;12.50;99.90;;;;;;4980607;28;88247;-33
2023/01/04 12:36:55;;;;;;;7.97;3.80;;;12.50;99.90;;;;;;4978033;28;89904;-33
2023/01/04 12:39:30;;;;;;;6.93;3.15;;;12.50;99.90;;;;;;4978436;28;90923;-34
2023/01/04 12:41:59;;;;;;;9.70;3.53;;;12.40;99.90;;;;;;4978168;28;89094;-33
2023/01/04 12:44:45;;;;;;;;;;;12.40;99.90;;;;;;4979630;28;89986;-35
2023/01/04 12:50:12;;;;;;;3.03;2.42;;;12.40;99.90;;;;;;4974951;28;90263;-32
2023/01/04 12:52:45;;;;;;;2.42;1.75;;;12.50;99.90;;;;;;4978079;28;90000;-32
2023/01/04 12:55:32;;;;;;;5.18;2.17;;;12.50;99.90;;;;;;4978886;28;88366;-33
2023/01/04 12:57:59;;;;;;;1.90;1.80;;;12.50;99.90;;;;;;4978086;28;89550;-35
2023/01/04 13:00:49;;;;;;;2.88;1.52;;;12.40;99.90;;;;;;4977615;28;90242;-33
2023/01/04 13:03:18;;;;;;;4.35;1.95;;;12.50;99.90;;;;;;4978111;28;89491;-32
2023/01/04 13:06:01;;;;;;;3.00;1.83;;;12.50;99.90;;;;;;4977652;28;90416;-33
2023/01/04 13:08:32;;;;;;;4.13;1.50;;;12.50;99.90;;;;;;4978860;28;89230;-33
2023/01/04 13:10:59;;;;;;;5.97;2.00;;;12.50;99.90;;;;;;4978297;28;90045;-34
2023/01/04 13:13:57;;;;;;;1.77;1.65;;;12.40;99.90;;;;;;4978506;28;91146;-34
2023/01/04 13:16:48;;;;;;;5.82;2.42;;;12.40;99.90;;;;;;4978480;28;88443;-32
2023/01/04 13:19:22;;;;;;;8.80;2.55;;;12.40;99.90;;;;;;4978088;28;89652;-36
2023/01/04 13:21:51;;;;;;;3.67;2.65;;;12.40;99.90;;;;;;4977829;28;89904;-34
2023/01/04 13:24:21;;;;;;;5.57;2.50;;;12.40;99.90;;;;;;4977999;28;89373;-34
2023/01/04 13:26:47;;;;;;;10.00;3.13;;;12.40;99.90;;;;;;4977597;28;89412;-32
2023/01/04 13:29:24;;;;;;;6.15;3.00;;;12.40;99.90;;;;;;4977996;28;90088;-34
2023/01/04 13:32:11;;;;;;;7.90;3.88;;;12.40;99.90;;;;;;4964298;28;89910;-33
2023/01/04 13:34:46;;;;;;;9.10;2.80;;;12.50;99.90;;;;;;4977799;28;90601;-32
2023/01/04 13:37:16;;;;;;;7.75;3.05;;;12.40;99.90;;;;;;4977630;28;88390;-33
2023/01/04 13:39:49;;;;;;;20.08;4.18;;;12.50;99.90;;;;;;4977070;28;90975;-34
2023/01/04 13:42:21;;;;;;;14.23;3.30;;;12.50;99.90;;;;;;4978084;28;90214;-33
2023/01/04 13:45:30;;;;;;;11.18;3.08;;;12.50;99.90;;;;;;4978144;28;90282;-34
2023/01/04 13:48:03;;;;;;;12.57;4.43;;;12.50;99.90;;;;;;4978156;28;90174;-32
2023/01/04 13:50:45;;;;;;;9.52;3.20;;;12.50;99.90;;;;;;4977951;28;89790;-32
2023/01/04 13:53:23;;;;;;;6.82;3.88;;;12.50;99.90;;;;;;4978212;28;89799;-35
2023/01/04 13:55:51;;;;;;;12.63;4.67;;;12.50;99.90;;;;;;4977724;28;90394;-33